Time;durP1;ratioP1;P1;durP2;ratioP2;P2;SDS_P1;SDS_P2;PMS_P1;PMS_P2;Temp;Humidity;BMP_temperature;BMP_pressure;BME280_temperature;BME280_humidity;BME280_pressure;Samples;Min_cycle;Max_cycle;Signal;HPM_P1;HPM_P2
2021/12/29 00:03:04;;;;;;;29.25;18.85;;;8.40;86.00;;;;;;10774779;33;20043;-70
2021/12/29 00:09:06;;;;;;;34.13;20.12;;;8.40;86.00;;;;;;10787630;33;20024;-70
2021/12/29 00:15:11;;;;;;;29.80;18.35;;;8.40;86.00;;;;;;10787584;33;20024;-70
2021/12/29 00:21:14;;;;;;;44.60;28.30;;;8.40;86.00;;;;;;10787376;33;20059;-70
2021/12/29 00:27:16;;;;;;;29.85;20.40;;;8.40;86.00;;;;;;10787128;33;20024;-70
2021/12/29 00:33:19;;;;;;;24.27;14.68;;;8.30;86.10;;;;;;10782904;33;20021;-70
2021/12/29 00:39:28;;;;;;;;;;;8.30;86.00;;;;;;10771122;33;20344;-73
2021/12/29 00:45:37;;;;;;;30.17;17.42;;;8.40;86.00;;;;;;10788684;33;20235;-72
2021/12/29 00:51:39;;;;;;;40.35;23.67;;;8.30;86.00;;;;;;10793223;33;20427;-72
2021/12/29 00:57:43;;;;;;;36.67;21.40;;;8.30;86.00;;;;;;10793061;33;20385;-73
2021/12/29 01:03:45;;;;;;;33.17;20.62;;;8.30;86.00;;;;;;10790918;33;20027;-72
2021/12/29 01:09:47;;;;;;;39.65;25.73;;;8.30;86.00;;;;;;10779575;33;20407;-70
2021/12/29 01:16:15;;;;;;;33.40;22.42;;;8.20;86.00;;;;;;10792370;33;20024;-70
2021/12/29 01:22:17;;;;;;;45.78;27.35;;;8.20;86.10;;;;;;10792165;33;20059;-70
2021/12/29 01:28:19;;;;;;;36.65;22.65;;;8.20;86.10;;;;;;10791977;33;20028;-70
2021/12/29 01:34:21;;;;;;;44.33;26.77;;;8.20;86.20;;;;;;10791757;33;20028;-70
2021/12/29 01:40:23;;;;;;;30.00;19.02;;;8.20;86.20;;;;;;10791607;33;20017;-70
2021/12/29 01:46:26;;;;;;;33.70;22.02;;;8.20;86.20;;;;;;10370378;27;11993865;-70
2021/12/29 01:52:35;;;;;;;32.95;21.17;;;8.20;86.10;;;;;;10711610;33;20029;-70
2021/12/29 01:58:37;;;;;;;25.33;17.27;;;8.20;86.10;;;;;;10714673;33;20068;-70
2021/12/29 02:04:39;;;;;;;58.10;33.20;;;8.20;86.10;;;;;;10714460;33;20423;-70
2021/12/29 02:10:46;;;;;;;34.38;22.67;;;8.20;86.10;;;;;;10760103;33;20032;-70
2021/12/29 02:16:49;;;;;;;52.53;30.00;;;8.20;86.10;;;;;;10790617;33;20051;-70
2021/12/29 02:23:12;;;;;;;41.33;24.48;;;8.20;86.10;;;;;;10790408;33;20028;-70
2021/12/29 02:29:17;;;;;;;36.13;23.73;;;8.20;86.20;;;;;;10790294;33;20036;-70
2021/12/29 02:35:19;;;;;;;33.92;21.92;;;8.20;86.10;;;;;;10789166;33;20033;-70
2021/12/29 02:41:26;;;;;;;48.97;29.52;;;8.20;86.10;;;;;;10789857;33;20341;-70
2021/12/29 02:47:28;;;;;;;70.35;40.33;;;8.20;86.10;;;;;;10789888;33;20427;-70
2021/12/29 02:53:31;;;;;;;54.60;31.23;;;8.20;86.10;;;;;;10789531;33;20389;-70
2021/12/29 02:59:36;;;;;;;44.80;24.52;;;8.20;86.20;;;;;;10776316;33;20040;-70
2021/12/29 03:05:38;;;;;;;64.70;33.25;;;8.20;86.20;;;;;;10789079;33;20298;-70
2021/12/29 03:11:40;;;;;;;42.38;25.52;;;8.20;86.20;;;;;;10788702;33;20054;-70
2021/12/29 03:17:43;;;;;;;45.05;27.60;;;8.20;86.20;;;;;;10788826;33;20016;-70
2021/12/29 03:23:45;;;;;;;39.05;22.02;;;8.20;86.20;;;;;;10775733;33;20024;-70
2021/12/29 03:30:15;;;;;;;53.53;27.55;;;8.20;86.20;;;;;;10788383;33;20024;-70
2021/12/29 03:36:18;;;;;;;48.03;28.20;;;8.20;86.20;;;;;;10786194;33;20070;-70
2021/12/29 03:42:20;;;;;;;33.28;20.30;;;8.20;86.20;;;;;;10788294;33;20020;-70
2021/12/29 03:48:25;;;;;;;35.42;21.67;;;8.20;86.20;;;;;;10787904;33;20032;-70
2021/12/29 03:54:27;;;;;;;52.28;28.87;;;8.20;86.20;;;;;;10787976;33;20055;-70
2021/12/29 04:00:31;;;;;;;34.90;21.52;;;8.20;86.20;;;;;;10787981;33;20028;-70
2021/12/29 04:06:33;;;;;;;28.05;17.73;;;8.20;86.20;;;;;;10787721;33;20028;-70
2021/12/29 04:12:39;;;;;;;37.63;22.50;;;8.20;86.20;;;;;;10787541;33;20055;-70
2021/12/29 04:18:55;;;;;;;44.78;26.85;;;8.20;86.20;;;;;;10789042;33;20032;-70
2021/12/29 04:24:57;;;;;;;33.15;19.35;;;8.20;86.20;;;;;;10793920;33;20506;-70
2021/12/29 04:31:30;;;;;;;30.30;20.23;;;8.20;86.20;;;;;;10780654;33;20028;-70
2021/12/29 04:37:32;;;;;;;24.27;16.77;;;8.20;86.20;;;;;;10789928;33;20033;-70
2021/12/29 04:43:34;;;;;;;35.97;21.52;;;8.20;86.20;;;;;;10793303;33;20325;-70
2021/12/29 04:49:41;;;;;;;34.38;22.13;;;8.20;86.20;;;;;;10793029;33;20036;-70
2021/12/29 04:55:45;;;;;;;28.25;18.45;;;8.20;86.20;;;;;;10790300;33;20035;-70
2021/12/29 05:01:48;;;;;;;28.83;18.02;;;8.20;86.20;;;;;;10792870;33;20046;-70
2021/12/29 05:14:14;;;;;;;27.65;16.37;;;8.20;86.20;;;;;;10791174;33;20050;-70
2021/12/29 05:20:15;;;;;;;30.58;20.35;;;8.10;86.10;;;;;;10792254;33;20047;-70
2021/12/29 05:26:22;;;;;;;45.55;30.92;;;8.00;86.10;;;;;;10775001;33;20060;-70
2021/12/29 05:32:24;;;;;;;32.05;22.27;;;8.00;86.20;;;;;;10791283;33;20020;-70
2021/12/29 05:38:26;;;;;;;33.17;22.55;;;8.00;86.20;;;;;;10791819;33;20035;-69
2021/12/29 05:44:28;;;;;;;36.28;21.55;;;8.00;86.20;;;;;;10791501;33;20074;-69
2021/12/29 05:50:31;;;;;;;30.42;20.55;;;8.00;86.30;;;;;;10790099;33;20071;-69
2021/12/29 05:56:33;;;;;;;53.90;26.45;;;7.90;86.20;;;;;;10791257;33;20066;-69
2021/12/29 06:02:35;;;;;;;39.20;22.13;;;7.90;86.20;;;;;;10791111;33;20024;-69
2021/12/29 06:08:37;;;;;;;46.85;27.10;;;7.80;86.20;;;;;;10777724;33;20028;-69
2021/12/29 06:14:39;;;;;;;40.90;26.98;;;7.80;86.20;;;;;;10787188;33;20388;-69
2021/12/29 06:20:41;;;;;;;45.58;27.75;;;7.70;86.20;;;;;;10790610;33;20028;-69
2021/12/29 06:26:43;;;;;;;50.40;36.83;;;7.70;86.30;;;;;;10790305;33;20051;-69
2021/12/29 06:33:07;;;;;;;63.72;37.03;;;7.60;86.30;;;;;;10789988;33;20439;-70
2021/12/29 06:39:10;;;;;;;57.78;32.13;;;7.50;86.30;;;;;;10789872;33;20328;-69
2021/12/29 06:45:12;;;;;;;59.25;32.35;;;7.50;86.40;;;;;;10789793;33;20050;-69
2021/12/29 06:51:14;;;;;;;41.63;24.92;;;7.50;86.40;;;;;;10789370;33;20055;-72
2021/12/29 06:57:17;;;;;;;34.15;21.02;;;7.40;86.40;;;;;;10789679;33;20020;-72
2021/12/29 07:03:19;;;;;;;53.08;32.92;;;7.30;86.40;;;;;;10788978;33;20033;-72
2021/12/29 07:09:22;;;;;;;43.00;24.77;;;7.30;86.40;;;;;;10789117;33;20017;-72
2021/12/29 07:15:24;;;;;;;45.78;25.88;;;7.30;86.50;;;;;;10788862;33;20066;-72
2021/12/29 07:21:26;;;;;;;39.83;24.02;;;7.20;86.40;;;;;;10787475;33;20055;-72
2021/12/29 07:27:28;;;;;;;46.97;26.65;;;7.20;86.50;;;;;;10785872;33;20060;-72
2021/12/29 07:33:32;;;;;;;37.75;23.48;;;7.30;86.40;;;;;;10788325;33;20070;-72
2021/12/29 07:39:34;;;;;;;35.75;21.08;;;7.30;86.50;;;;;;10785963;33;20020;-72
2021/12/29 07:45:37;;;;;;;49.20;23.42;;;7.30;86.40;;;;;;10788050;33;20373;-72
2021/12/29 07:51:41;;;;;;;41.40;27.58;;;7.30;86.40;;;;;;10787599;33;20067;-72
2021/12/29 07:57:43;;;;;;;32.40;20.25;;;7.30;86.40;;;;;;10774591;33;20021;-72
2021/12/29 08:04:03;;;;;;;26.20;16.52;;;7.40;86.50;;;;;;10787851;33;20028;-72
2021/12/29 08:10:07;;;;;;;24.12;16.33;;;7.50;86.40;;;;;;10787625;33;20020;-72
2021/12/29 08:16:09;;;;;;;36.88;24.52;;;7.50;86.30;;;;;;10787614;33;20409;-72
2021/12/29 08:22:11;;;;;;;30.37;19.15;;;7.40;86.20;;;;;;10787574;33;20021;-72
2021/12/29 08:28:14;;;;;;;33.45;20.77;;;7.40;86.40;;;;;;10785614;33;20051;-73
2021/12/29 08:34:17;;;;;;;27.45;18.45;;;7.40;86.50;;;;;;10785372;33;20027;-72
2021/12/29 08:40:19;;;;;;;28.60;16.33;;;7.30;86.30;;;;;;10771286;33;20059;-72
2021/12/29 08:46:24;;;;;;;35.15;22.83;;;7.30;86.30;;;;;;10786836;33;20063;-72
2021/12/29 08:52:26;;;;;;;37.92;26.23;;;7.20;86.30;;;;;;10786614;33;20036;-70
2021/12/29 08:58:29;;;;;;;37.97;23.85;;;7.20;86.30;;;;;;10782818;33;20082;-69
2021/12/29 09:04:31;;;;;;;29.63;21.60;;;7.30;86.30;;;;;;10786355;33;20028;-69
2021/12/29 09:10:33;;;;;;;30.65;20.77;;;7.30;86.30;;;;;;10788292;33;20405;-69
2021/12/29 09:16:36;;;;;;;27.98;18.83;;;7.30;86.30;;;;;;10788596;33;20040;-69
2021/12/29 09:22:37;;;;;;;34.33;25.70;;;7.40;86.30;;;;;;10792036;33;20063;-69
2021/12/29 09:28:41;;;;;;;40.00;25.48;;;7.40;86.20;;;;;;10787602;33;20107;-69
2021/12/29 09:34:44;;;;;;;28.35;18.92;;;7.40;86.20;;;;;;10791298;33;20062;-69
2021/12/29 09:40:48;;;;;;;26.52;17.35;;;7.40;86.30;;;;;;10777749;33;20031;-69
2021/12/29 09:46:52;;;;;;;41.85;27.90;;;7.40;86.20;;;;;;10827837;27;20035;-69
2021/12/29 09:53:07;;;;;;;28.50;19.55;;;7.50;86.10;;;;;;10824268;33;20036;-69
2021/12/29 09:59:09;;;;;;;26.55;18.08;;;7.40;86.10;;;;;;10827885;33;20254;-69
2021/12/29 10:05:12;;;;;;;27.90;20.25;;;7.40;86.10;;;;;;10827776;33;20024;-69
2021/12/29 10:11:47;;;;;;;25.55;19.08;;;7.50;86.20;;;;;;10822045;33;20023;-69
2021/12/29 10:17:49;;;;;;;44.22;28.20;;;7.70;86.20;;;;;;10788593;33;20024;-69
2021/12/29 10:23:54;;;;;;;30.83;22.50;;;7.70;86.10;;;;;;10790054;33;20055;-69
2021/12/29 10:29:56;;;;;;;27.50;16.95;;;7.80;86.00;;;;;;10790088;33;20392;-69
2021/12/29 10:36:29;;;;;;;26.87;17.15;;;7.80;86.00;;;;;;10785980;33;20180;-69
2021/12/29 10:42:31;;;;;;;44.17;31.40;;;7.80;85.90;;;;;;10789805;33;20028;-69
2021/12/29 10:48:33;;;;;;;36.38;26.02;;;7.80;85.90;;;;;;10789579;33;20027;-69
2021/12/29 10:54:36;;;;;;;39.95;26.45;;;7.80;85.90;;;;;;10785167;33;20324;-69
2021/12/29 11:00:41;;;;;;;36.22;22.08;;;7.80;85.90;;;;;;10789119;33;20052;-69
2021/12/29 11:07:01;;;;;;;47.45;32.05;;;7.90;85.90;;;;;;10788935;33;20044;-72
2021/12/29 11:13:03;;;;;;;33.03;22.42;;;8.10;85.90;;;;;;10789055;33;20325;-72
2021/12/29 11:19:07;;;;;;;41.30;30.20;;;8.30;85.70;;;;;;10788964;33;20058;-71
2021/12/29 11:25:10;;;;;;;37.05;28.00;;;8.40;85.50;;;;;;10788548;33;20028;-71
2021/12/29 11:31:12;;;;;;;39.22;26.15;;;8.50;85.50;;;;;;10787829;33;20028;-72
2021/12/29 11:37:14;;;;;;;41.83;27.17;;;8.70;85.50;;;;;;10774616;33;20012;-72
2021/12/29 11:43:18;;;;;;;47.97;31.52;;;8.90;85.10;;;;;;10788308;33;20024;-71
2021/12/29 11:49:20;;;;;;;46.15;31.23;;;9.00;85.00;;;;;;10788143;33;20020;-72
2021/12/29 11:55:33;;;;;;;41.67;30.88;;;9.20;84.90;;;;;;10788056;33;20329;-71
2021/12/29 12:01:37;;;;;;;50.92;31.58;;;9.40;84.50;;;;;;10787847;33;20051;-72
2021/12/29 12:07:40;;;;;;;41.25;25.67;;;9.50;84.40;;;;;;10783874;33;20052;-71
2021/12/29 12:14:00;;;;;;;38.97;25.95;;;9.50;84.30;;;;;;10787188;33;20046;-71
2021/12/29 12:20:11;;;;;;;45.10;36.20;;;9.60;84.40;;;;;;10787498;33;20113;-69
2021/12/29 12:26:18;;;;;;;42.58;30.10;;;9.60;84.30;;;;;;10787248;33;20008;-69
2021/12/29 12:32:24;;;;;;;39.47;29.73;;;9.50;84.30;;;;;;10787068;33;20023;-69
2021/12/29 12:38:34;;;;;;;54.88;33.58;;;9.60;84.30;;;;;;10787439;33;20024;-69
2021/12/29 12:44:41;;;;;;;34.90;22.08;;;9.60;84.00;;;;;;10793064;33;20025;-69
2021/12/29 12:50:45;;;;;;;33.40;23.67;;;9.50;84.20;;;;;;10793162;33;20051;-69
2021/12/29 12:56:48;;;;;;;35.80;24.95;;;9.60;84.10;;;;;;10792864;33;20020;-72
2021/12/29 13:03:55;;;;;;;35.03;24.77;;;9.60;84.20;;;;;;10813261;33;20050;-72
2021/12/29 13:09:57;;;;;;;48.58;30.90;;;9.60;84.20;;;;;;10644577;33;20160;-72
2021/12/29 13:16:29;;;;;;;30.20;22.62;;;9.60;84.20;;;;;;10643655;33;20021;-72
2021/12/29 13:22:33;;;;;;;38.70;24.55;;;9.50;84.00;;;;;;10638345;33;20033;-72
2021/12/29 13:28:42;;;;;;;41.05;25.88;;;9.50;83.80;;;;;;10643138;33;20021;-72
2021/12/29 13:34:44;;;;;;;32.53;22.90;;;9.50;83.90;;;;;;10639903;33;20060;-69
2021/12/29 13:40:53;;;;;;;33.47;23.45;;;9.60;83.80;;;;;;10642785;33;20053;-69
2021/12/29 13:46:55;;;;;;;37.60;25.73;;;9.60;83.90;;;;;;10783035;33;20028;-69
2021/12/29 13:53:06;;;;;;;39.88;25.65;;;9.50;83.90;;;;;;10786686;33;20360;-69
2021/12/29 13:59:12;;;;;;;28.50;17.70;;;9.40;83.90;;;;;;10776677;33;20051;-69
2021/12/29 14:05:15;;;;;;;30.25;19.17;;;9.40;84.00;;;;;;10791098;33;20054;-69
2021/12/29 14:11:17;;;;;;;27.80;17.00;;;9.40;84.00;;;;;;10790778;33;20044;-69
2021/12/29 14:17:22;;;;;;;23.38;16.73;;;9.30;84.10;;;;;;10790877;33;20036;-69
2021/12/29 14:23:32;;;;;;;28.17;17.70;;;9.30;84.20;;;;;;10790389;33;20028;-69
2021/12/29 14:29:38;;;;;;;29.08;19.23;;;9.30;84.20;;;;;;10790420;32;20058;-69
2021/12/29 14:35:50;;;;;;;30.08;20.08;;;9.20;84.20;;;;;;10808479;33;20412;-69
2021/12/29 14:42:12;;;;;;;28.20;19.62;;;9.20;84.10;;;;;;10789743;33;20055;-69
2021/12/29 14:48:14;;;;;;;23.87;15.23;;;9.20;84.10;;;;;;10789519;33;20345;-69
2021/12/29 14:54:16;;;;;;;32.47;19.92;;;9.20;84.20;;;;;;10793949;33;20039;-69
2021/12/29 15:00:22;;;;;;;45.72;30.12;;;9.20;84.20;;;;;;10792814;33;20301;-71
2021/12/29 15:06:44;;;;;;;23.15;17.05;;;9.20;84.20;;;;;;10756453;32;20033;-72
2021/12/29 15:12:49;;;;;;;36.97;24.15;;;9.20;84.30;;;;;;10748322;33;20036;-71
2021/12/29 15:18:51;;;;;;;26.10;16.87;;;9.20;84.20;;;;;;10748648;33;20055;-72
2021/12/29 15:24:54;;;;;;;32.38;19.42;;;9.10;84.30;;;;;;10759181;33;20048;-72
2021/12/29 15:31:01;;;;;;;22.73;15.70;;;9.00;84.40;;;;;;10759649;33;20066;-72
2021/12/29 15:37:23;;;;;;;24.20;16.70;;;8.90;84.50;;;;;;10779873;32;20086;-72
2021/12/29 15:43:26;;;;;;;27.17;17.80;;;8.80;84.70;;;;;;10795021;33;20032;-72
2021/12/29 15:49:29;;;;;;;20.65;12.20;;;8.70;84.70;;;;;;10788098;33;20064;-72
2021/12/29 15:55:31;;;;;;;21.87;14.73;;;8.60;84.90;;;;;;10789273;33;20036;-72
2021/12/29 16:01:34;;;;;;;25.90;15.77;;;8.40;85.00;;;;;;10806243;33;20293;-69
2021/12/29 16:07:36;;;;;;;18.15;11.57;;;8.40;85.00;;;;;;10813399;33;20031;-69
2021/12/29 16:13:38;;;;;;;25.30;16.60;;;8.30;85.00;;;;;;10810292;33;20054;-69
2021/12/29 16:19:58;;;;;;;28.98;20.10;;;8.20;85.00;;;;;;10812673;33;20365;-69
2021/12/29 16:26:00;;;;;;;19.37;12.23;;;8.20;85.00;;;;;;10813931;33;20027;-69
2021/12/29 16:32:03;;;;;;;19.98;12.90;;;8.10;85.20;;;;;;10817615;33;20335;-69
2021/12/29 16:38:06;;;;;;;15.13;11.15;;;8.00;85.20;;;;;;10796612;33;20028;-69
2021/12/29 16:44:08;;;;;;;24.60;20.33;;;8.00;85.30;;;;;;10794085;33;20361;-69
2021/12/29 16:50:13;;;;;;;30.62;21.45;;;7.90;85.20;;;;;;10793087;33;20032;-72
2021/12/29 16:56:17;;;;;;;49.55;35.60;;;7.80;85.30;;;;;;10801892;33;20040;-72
2021/12/29 17:02:19;;;;;;;24.65;19.25;;;7.80;85.30;;;;;;10829850;33;20461;-73
2021/12/29 17:08:21;;;;;;;24.67;15.88;;;7.70;85.40;;;;;;10829553;33;20021;-73
2021/12/29 17:14:52;;;;;;;37.15;25.40;;;7.70;85.40;;;;;;10829120;33;20066;-72
2021/12/29 17:21:00;;;;;;;21.75;15.45;;;7.70;85.40;;;;;;10830331;33;20046;-73
2021/12/29 17:27:04;;;;;;;30.77;21.17;;;7.60;85.30;;;;;;10828216;32;20023;-73
2021/12/29 17:33:06;;;;;;;55.67;36.08;;;7.60;85.30;;;;;;10828791;33;20036;-73
2021/12/29 17:39:27;;;;;;;27.23;20.12;;;7.60;85.20;;;;;;10828273;33;20324;-73
2021/12/29 17:45:30;;;;;;;27.37;18.77;;;7.50;85.30;;;;;;10831463;27;20100;-72
2021/12/29 17:51:32;;;;;;;22.30;15.38;;;7.40;85.30;;;;;;10828371;33;20434;-73
2021/12/29 17:57:35;;;;;;;21.37;16.25;;;7.30;85.30;;;;;;10827415;33;20032;-72
2021/12/29 18:04:16;;;;;;;24.27;16.62;;;7.30;85.30;;;;;;10828147;33;20046;-73
2021/12/29 18:10:20;;;;;;;18.35;12.88;;;7.20;85.40;;;;;;10827811;33;20020;-72
2021/12/29 18:16:22;;;;;;;20.08;15.98;;;7.20;85.50;;;;;;10827654;33;20298;-72
2021/12/29 18:22:24;;;;;;;21.37;16.45;;;7.20;85.30;;;;;;10827442;33;20020;-72
2021/12/29 18:28:27;;;;;;;20.37;16.23;;;7.20;85.30;;;;;;10826404;33;20046;-73
2021/12/29 18:34:29;;;;;;;25.00;17.12;;;7.10;85.30;;;;;;10825217;33;20024;-72
2021/12/29 18:40:31;;;;;;;44.40;28.42;;;7.10;85.20;;;;;;10826670;32;20031;-72
2021/12/29 18:47:00;;;;;;;47.38;33.38;;;7.00;85.30;;;;;;10826662;33;20024;-70
2021/12/29 18:53:04;;;;;;;30.12;21.20;;;6.90;85.40;;;;;;10826596;33;20025;-69
2021/12/29 19:00:05;;;;;;;48.28;32.88;;;6.90;85.50;;;;;;10812784;33;20380;-69
2021/12/29 19:06:09;;;;;;;49.67;32.58;;;6.80;85.50;;;;;;10826262;33;20028;-69
2021/12/29 19:12:11;;;;;;;31.45;21.10;;;6.80;85.40;;;;;;10825961;33;20042;-69
2021/12/29 19:18:13;;;;;;;47.75;34.05;;;6.90;85.40;;;;;;10825988;33;20422;-69
2021/12/29 19:24:15;;;;;;;28.98;21.40;;;6.80;85.40;;;;;;10821549;33;20047;-69
2021/12/29 19:30:17;;;;;;;27.77;21.02;;;6.80;85.30;;;;;;10825592;33;20030;-69
2021/12/29 19:36:40;;;;;;;32.67;22.05;;;6.70;85.40;;;;;;10825439;33;20434;-69
2021/12/29 19:42:44;;;;;;;48.15;34.80;;;6.70;85.40;;;;;;10825516;33;20320;-69
2021/12/29 19:48:54;;;;;;;29.52;21.58;;;6.80;85.30;;;;;;10824457;32;20019;-69
2021/12/29 19:55:06;;;;;;;26.40;18.98;;;6.80;85.40;;;;;;10811681;33;20058;-69
2021/12/29 20:01:29;;;;;;;26.75;19.67;;;6.70;85.40;;;;;;10824637;33;20007;-69
2021/12/29 20:07:45;;;;;;;31.40;21.87;;;6.70;85.40;;;;;;10824467;33;20020;-69
2021/12/29 20:14:38;;;;;;;58.33;43.90;;;6.70;85.50;;;;;;10824494;33;20016;-69
2021/12/29 20:20:40;;;;;;;59.78;46.67;;;6.70;85.40;;;;;;10639474;33;20091;-69
2021/12/29 20:26:43;;;;;;;59.53;42.60;;;6.70;85.50;;;;;;10637786;33;20160;-69
2021/12/29 20:32:45;;;;;;;37.95;28.48;;;6.80;85.50;;;;;;10638569;33;20075;-69
2021/12/29 20:38:47;;;;;;;61.33;47.62;;;6.80;85.40;;;;;;10638448;33;20034;-70
2021/12/29 20:44:49;;;;;;;59.03;39.90;;;6.80;85.30;;;;;;10638104;33;20041;-71
2021/12/29 20:50:52;;;;;;;54.08;39.13;;;6.80;85.40;;;;;;10635626;33;20427;-70
2021/12/29 20:56:56;;;;;;;75.65;58.53;;;6.80;85.50;;;;;;10777289;33;20028;-73
2021/12/29 21:02:58;;;;;;;100.45;63.75;;;6.70;85.50;;;;;;10812222;32;20023;-73
2021/12/29 21:09:00;;;;;;;59.13;39.13;;;6.70;85.60;;;;;;10829649;33;20078;-73
2021/12/29 21:15:07;;;;;;;37.50;27.90;;;6.70;85.70;;;;;;10829330;33;20050;-73
2021/12/29 21:21:10;;;;;;;56.08;36.42;;;6.80;85.60;;;;;;10829134;33;20032;-73
2021/12/29 21:27:13;;;;;;;44.78;30.85;;;6.80;85.60;;;;;;10815971;33;20381;-73
2021/12/29 21:33:19;;;;;;;82.15;59.22;;;6.90;85.60;;;;;;10814905;33;20058;-74
2021/12/29 21:39:21;;;;;;;64.90;44.63;;;6.80;85.30;;;;;;10827888;33;20328;-73
2021/12/29 21:45:31;;;;;;;58.35;41.83;;;6.70;85.50;;;;;;10828623;33;20431;-73
2021/12/29 21:51:36;;;;;;;46.15;33.97;;;6.60;85.60;;;;;;10815558;33;20328;-73
2021/12/29 21:57:39;;;;;;;44.13;30.02;;;6.60;85.60;;;;;;10828214;33;20035;-73
2021/12/29 22:03:41;;;;;;;48.47;34.45;;;6.50;85.60;;;;;;10815027;33;20364;-73
2021/12/29 22:09:42;;;;;;;46.65;33.17;;;6.50;85.70;;;;;;10827832;33;20021;-74
2021/12/29 22:15:47;;;;;;;40.22;28.17;;;6.50;85.70;;;;;;10826623;32;20384;-73
2021/12/29 22:21:49;;;;;;;54.95;36.70;;;6.50;85.70;;;;;;10827602;33;20388;-73
2021/12/29 22:27:52;;;;;;;50.05;34.88;;;6.60;85.70;;;;;;10827542;33;20015;-74
2021/12/29 22:33:55;;;;;;;32.75;24.63;;;6.40;85.70;;;;;;10827224;33;20423;-73
2021/12/29 22:39:57;;;;;;;38.83;28.95;;;6.40;85.80;;;;;;10826923;33;20392;-73
2021/12/29 22:45:59;;;;;;;33.05;23.15;;;6.40;85.80;;;;;;10826849;33;20043;-74
2021/12/29 22:52:03;;;;;;;59.70;37.97;;;6.40;85.70;;;;;;10826561;33;20024;-74
2021/12/29 22:58:13;;;;;;;35.00;23.73;;;6.40;85.70;;;;;;10826519;33;20027;-73
2021/12/29 23:04:16;;;;;;;61.30;42.83;;;6.40;85.70;;;;;;10812003;33;20036;-73
2021/12/29 23:10:19;;;;;;;33.45;24.10;;;6.30;85.70;;;;;;10825705;33;20427;-74
2021/12/29 23:16:21;;;;;;;34.45;26.65;;;6.30;85.70;;;;;;10826093;33;20082;-73
2021/12/29 23:22:25;;;;;;;36.17;23.55;;;6.20;85.70;;;;;;10825791;33;20051;-73
2021/12/29 23:28:27;;;;;;;35.35;24.12;;;6.20;85.80;;;;;;10811881;33;20027;-71
2021/12/29 23:34:30;;;;;;;40.15;29.35;;;6.20;85.80;;;;;;10821285;33;20309;-73
2021/12/29 23:40:32;;;;;;;29.27;21.87;;;6.20;85.80;;;;;;10825278;33;20027;-73
2021/12/29 23:46:35;;;;;;;25.60;18.12;;;6.20;85.80;;;;;;10825129;33;20055;-73
2021/12/29 23:52:51;;;;;;;29.87;22.17;;;6.10;85.70;;;;;;10811949;33;20048;-73
2021/12/29 23:59:05;;;;;;;28.65;20.62;;;6.00;85.80;;;;;;10824762;33;20031;-73
